Time;durP1;ratioP1;P1;durP2;ratioP2;P2;SDS_P1;SDS_P2;PMS_P1;PMS_P2;Temp;Humidity;BMP_temperature;BMP_pressure;BME280_temperature;BME280_humidity;BME280_pressure;Samples;Min_cycle;Max_cycle;Signal;HPM_P1;HPM_P2
2023/08/01 00:00:35;;;;;;;15.77;7.03;;;15.70;99.90;;;;;;5009626;28;20399;-77
2023/08/01 00:03:01;;;;;;;14.60;7.03;;;15.70;99.90;;;;;;4993829;28;20038;-78
2023/08/01 00:05:26;;;;;;;15.60;8.15;;;15.70;99.90;;;;;;5010098;28;20034;-77
2023/08/01 00:07:53;;;;;;;14.30;7.82;;;15.70;99.90;;;;;;4975173;28;20042;-77
2023/08/01 00:10:18;;;;;;;16.63;7.90;;;15.70;99.90;;;;;;4993204;28;20410;-77
2023/08/01 00:12:44;;;;;;;15.13;7.88;;;15.70;99.90;;;;;;5011304;28;20515;-77
2023/08/01 00:15:10;;;;;;;14.32;7.40;;;15.70;99.90;;;;;;4992805;28;20507;-77
2023/08/01 00:17:36;;;;;;;16.83;8.10;;;15.70;99.90;;;;;;5010860;28;20042;-77
2023/08/01 00:20:02;;;;;;;17.35;8.73;;;15.70;99.90;;;;;;4992541;28;20282;-77
2023/08/01 00:22:28;;;;;;;25.17;9.60;;;15.70;99.90;;;;;;5010154;28;20511;-77
2023/08/01 00:24:54;;;;;;;19.38;8.60;;;15.70;99.90;;;;;;4986387;28;20049;-77
2023/08/01 00:27:20;;;;;;;19.23;8.95;;;15.70;99.90;;;;;;4994917;28;20045;-78
2023/08/01 00:29:46;;;;;;;14.13;8.18;;;15.70;99.90;;;;;;5009536;28;20049;-77
2023/08/01 00:32:12;;;;;;;16.38;8.32;;;15.70;99.90;;;;;;5009755;28;20419;-77
2023/08/01 00:34:37;;;;;;;18.00;8.75;;;15.70;99.90;;;;;;5010142;28;20041;-77
2023/08/01 00:37:04;;;;;;;18.40;8.98;;;15.70;99.90;;;;;;5010535;28;20053;-78
2023/08/01 00:39:30;;;;;;;15.73;8.90;;;15.70;99.90;;;;;;4993658;28;20034;-77
2023/08/01 00:41:56;;;;;;;18.83;9.07;;;15.70;99.90;;;;;;5010046;28;20419;-77
2023/08/01 00:44:22;;;;;;;20.13;9.63;;;15.60;99.90;;;;;;5007324;28;20139;-77
2023/08/01 00:46:48;;;;;;;19.45;10.15;;;15.60;99.90;;;;;;5009326;28;20056;-77
2023/08/01 00:49:14;;;;;;;19.67;9.57;;;15.70;99.90;;;;;;5026978;28;20045;-77
2023/08/01 00:51:41;;;;;;;18.50;9.40;;;15.70;99.90;;;;;;5006160;28;20480;-77
2023/08/01 00:54:07;;;;;;;24.30;9.98;;;15.60;99.90;;;;;;5008630;28;20058;-78
2023/08/01 00:56:33;;;;;;;14.82;9.10;;;15.60;99.90;;;;;;5009949;28;20109;-77
2023/08/01 00:58:59;;;;;;;16.95;10.70;;;15.60;99.90;;;;;;5010079;28;20041;-77
2023/08/01 01:01:24;;;;;;;22.83;10.23;;;15.60;99.90;;;;;;4992209;28;20030;-77
2023/08/01 01:03:51;;;;;;;19.92;9.05;;;15.60;99.90;;;;;;5009871;28;20038;-77
2023/08/01 01:06:21;;;;;;;21.42;9.90;;;15.60;99.90;;;;;;5008330;28;20137;-77
2023/08/01 01:08:47;;;;;;;26.75;10.40;;;15.60;99.90;;;;;;5009132;28;20100;-77
2023/08/01 01:11:13;;;;;;;17.75;10.13;;;15.60;99.90;;;;;;4989126;28;20455;-77
2023/08/01 01:13:39;;;;;;;17.48;9.75;;;15.60;99.90;;;;;;5007577;28;20049;-77
2023/08/01 01:16:04;;;;;;;16.83;9.55;;;15.60;99.90;;;;;;4976267;28;20045;-77
2023/08/01 01:18:30;;;;;;;18.05;9.55;;;15.60;99.90;;;;;;4977725;28;20034;-77
2023/08/01 01:20:56;;;;;;;19.25;8.93;;;15.60;99.90;;;;;;5008252;28;20034;-77
2023/08/01 01:23:23;;;;;;;18.13;8.32;;;15.60;99.90;;;;;;5008244;28;20091;-77
2023/08/01 01:25:51;;;;;;;16.58;8.95;;;15.60;99.90;;;;;;5025251;28;20056;-77
2023/08/01 01:28:17;;;;;;;18.55;8.30;;;15.60;99.90;;;;;;5008283;28;20045;-77
2023/08/01 01:30:44;;;;;;;14.77;8.20;;;15.60;99.90;;;;;;4990209;28;20112;-77
2023/08/01 01:33:10;;;;;;;18.08;8.32;;;15.60;99.90;;;;;;4992945;28;20111;-77
2023/08/01 01:35:36;;;;;;;17.30;7.78;;;15.60;99.90;;;;;;4999121;28;20037;-77
2023/08/01 01:38:05;;;;;;;13.45;7.95;;;15.50;99.90;;;;;;4990261;28;20113;-77
2023/08/01 01:40:32;;;;;;;13.82;7.78;;;15.50;99.90;;;;;;5025857;28;20038;-77
2023/08/01 01:42:58;;;;;;;19.80;9.23;;;15.50;99.90;;;;;;4991795;28;20550;-77
2023/08/01 01:45:24;;;;;;;18.45;8.63;;;15.50;99.90;;;;;;5004675;28;20077;-77
2023/08/01 01:47:50;;;;;;;16.05;8.18;;;15.50;99.90;;;;;;4989718;28;20080;-77
2023/08/01 01:50:15;;;;;;;14.93;7.80;;;15.50;99.90;;;;;;5008630;28;20510;-77
2023/08/01 01:52:41;;;;;;;20.58;8.57;;;15.50;99.90;;;;;;4992819;28;20160;-77
2023/08/01 01:55:07;;;;;;;16.48;7.88;;;15.50;99.90;;;;;;5005043;28;20042;-77
2023/08/01 01:57:33;;;;;;;17.77;7.80;;;15.50;99.90;;;;;;4958885;28;20041;-77
2023/08/01 01:59:58;;;;;;;17.02;8.25;;;15.50;99.90;;;;;;5008340;28;20041;-77
2023/08/01 02:02:24;;;;;;;18.33;8.98;;;15.50;99.90;;;;;;5007521;28;20407;-77
2023/08/01 02:04:50;;;;;;;18.25;9.75;;;15.50;99.90;;;;;;5008281;28;20041;-77
2023/08/01 02:07:16;;;;;;;19.10;10.40;;;15.50;99.90;;;;;;4992683;28;20479;-77
2023/08/01 02:09:42;;;;;;;19.15;10.15;;;15.50;99.90;;;;;;5023747;28;20052;-77
2023/08/01 02:12:09;;;;;;;18.73;9.68;;;15.50;99.90;;;;;;4991532;28;20120;-77
2023/08/01 02:14:36;;;;;;;18.50;9.40;;;15.50;99.90;;;;;;5009300;28;20088;-77
2023/08/01 02:17:01;;;;;;;18.10;9.43;;;15.50;99.90;;;;;;5006538;28;20037;-77
2023/08/01 02:19:27;;;;;;;18.40;9.32;;;15.50;99.90;;;;;;5008275;28;20030;-77
2023/08/01 02:21:53;;;;;;;17.23;9.23;;;15.40;99.90;;;;;;5008167;28;20037;-77
2023/08/01 02:24:19;;;;;;;21.20;9.20;;;15.40;99.90;;;;;;5008009;28;20041;-77
2023/08/01 02:26:45;;;;;;;14.57;9.25;;;15.40;99.90;;;;;;5007012;28;20354;-77
2023/08/01 02:29:10;;;;;;;19.50;9.05;;;15.40;99.90;;;;;;4992442;28;20073;-77
2023/08/01 02:31:36;;;;;;;16.85;9.35;;;15.40;99.90;;;;;;5008518;28;20042;-77
2023/08/01 02:34:02;;;;;;;16.80;9.95;;;15.40;99.90;;;;;;4992756;28;20490;-77
2023/08/01 02:36:27;;;;;;;20.83;8.70;;;15.30;99.90;;;;;;5007804;28;20065;-77
2023/08/01 02:38:53;;;;;;;23.42;9.02;;;15.30;99.90;;;;;;5005693;28;20539;-77
2023/08/01 02:41:19;;;;;;;21.30;9.15;;;15.30;99.90;;;;;;5009062;28;20564;-77
2023/08/01 02:43:44;;;;;;;16.35;7.97;;;15.30;99.90;;;;;;5007358;28;20120;-77
2023/08/01 02:46:10;;;;;;;15.73;7.90;;;15.30;99.90;;;;;;5008131;28;20478;-77
2023/08/01 02:48:36;;;;;;;14.07;8.43;;;15.30;99.90;;;;;;4991872;28;20034;-77
2023/08/01 02:51:02;;;;;;;16.83;8.13;;;15.30;99.90;;;;;;4975369;28;20426;-77
2023/08/01 02:53:28;;;;;;;17.08;7.32;;;15.30;99.90;;;;;;5024293;28;20046;-77
2023/08/01 02:55:54;;;;;;;17.67;8.30;;;15.30;99.90;;;;;;5007595;28;20100;-77
2023/08/01 02:58:19;;;;;;;14.23;7.28;;;15.30;99.90;;;;;;4990774;28;20038;-77
2023/08/01 03:00:47;;;;;;;17.10;7.80;;;15.20;99.90;;;;;;4963625;28;20126;-77
2023/08/01 03:03:13;;;;;;;14.10;8.10;;;15.20;99.90;;;;;;5007951;28;20038;-77
2023/08/01 03:05:38;;;;;;;13.55;7.32;;;15.10;99.90;;;;;;5008530;28;20048;-77
2023/08/01 03:08:05;;;;;;;17.85;8.38;;;15.10;99.90;;;;;;4995343;28;20102;-77
2023/08/01 03:10:30;;;;;;;21.23;8.50;;;15.10;99.90;;;;;;5012527;28;20502;-77
2023/08/01 03:12:56;;;;;;;16.70;8.82;;;15.10;99.90;;;;;;5003300;28;20538;-77
2023/08/01 03:15:22;;;;;;;20.98;8.70;;;15.10;99.90;;;;;;5012302;28;20041;-77
2023/08/01 03:17:47;;;;;;;21.25;8.73;;;15.10;99.90;;;;;;5011380;28;20128;-77
2023/08/01 03:20:13;;;;;;;17.08;8.88;;;15.10;99.90;;;;;;4995102;28;20045;-77
2023/08/01 03:22:39;;;;;;;17.30;8.23;;;15.10;99.90;;;;;;5011336;28;20119;-77
2023/08/01 03:25:10;;;;;;;16.67;7.40;;;15.10;99.90;;;;;;5012526;28;20042;-77
2023/08/01 03:27:36;;;;;;;17.60;7.30;;;15.00;99.90;;;;;;5027156;28;20085;-76
2023/08/01 03:30:02;;;;;;;12.60;6.80;;;15.00;99.90;;;;;;4995979;28;20073;-76
2023/08/01 03:32:27;;;;;;;11.88;7.30;;;15.00;99.90;;;;;;5011603;28;20487;-76
2023/08/01 03:34:53;;;;;;;18.85;7.53;;;15.00;99.90;;;;;;4995302;28;20038;-76
2023/08/01 03:37:19;;;;;;;19.15;6.82;;;15.00;99.90;;;;;;5011714;28;20061;-76
2023/08/01 03:39:45;;;;;;;19.80;7.47;;;15.00;99.90;;;;;;5011670;28;20432;-76
2023/08/01 03:42:10;;;;;;;18.17;7.53;;;14.90;99.90;;;;;;5011467;28;20076;-76
2023/08/01 03:44:36;;;;;;;21.42;6.80;;;15.00;99.90;;;;;;5027736;28;20127;-76
2023/08/01 03:47:02;;;;;;;14.75;6.53;;;14.90;99.90;;;;;;5008112;28;20044;-76
2023/08/01 03:49:28;;;;;;;23.30;7.15;;;14.90;99.90;;;;;;4962491;28;20050;-76
2023/08/01 03:51:53;;;;;;;14.35;6.32;;;14.90;99.90;;;;;;5007265;28;20046;-76
2023/08/01 03:54:19;;;;;;;20.25;7.60;;;14.80;99.90;;;;;;4994074;28;20034;-76
2023/08/01 03:56:45;;;;;;;17.77;7.28;;;14.80;99.90;;;;;;5025036;28;20121;-76
2023/08/01 03:59:15;;;;;;;18.77;7.72;;;14.80;99.90;;;;;;5006290;28;20042;-76
2023/08/01 04:01:42;;;;;;;19.65;7.25;;;14.80;99.90;;;;;;5007805;28;20040;-76
2023/08/01 04:04:08;;;;;;;23.58;8.05;;;14.80;99.90;;;;;;4994118;28;20037;-77
2023/08/01 04:06:34;;;;;;;21.63;7.88;;;14.80;99.90;;;;;;5027786;28;20414;-77
2023/08/01 04:09:00;;;;;;;13.20;6.57;;;14.80;99.90;;;;;;4993962;28;20132;-77
2023/08/01 04:11:26;;;;;;;13.90;6.95;;;14.80;99.90;;;;;;4994847;28;20030;-78
2023/08/01 04:13:52;;;;;;;11.77;5.63;;;14.80;99.90;;;;;;5010539;28;20120;-79
2023/08/01 04:16:18;;;;;;;9.20;4.30;;;14.70;99.90;;;;;;4994239;28;20117;-79
2023/08/01 04:18:44;;;;;;;8.23;3.92;;;14.70;99.90;;;;;;4991928;28;20049;-79
2023/08/01 04:21:09;;;;;;;4.95;3.30;;;14.60;99.90;;;;;;4962418;28;20543;-79
2023/08/01 04:23:35;;;;;;;4.85;2.88;;;14.60;99.90;;;;;;5025551;28;20472;-79
2023/08/01 04:26:00;;;;;;;4.85;2.92;;;14.50;99.90;;;;;;4994680;28;20050;-79
2023/08/01 04:28:26;;;;;;;7.22;3.30;;;14.50;99.90;;;;;;5008393;28;20069;-79
2023/08/01 04:30:52;;;;;;;6.75;3.63;;;14.30;99.90;;;;;;4992820;28;20483;-79
2023/08/01 04:33:18;;;;;;;9.35;3.70;;;14.40;99.90;;;;;;5009081;28;20061;-78
2023/08/01 04:35:44;;;;;;;4.85;2.70;;;14.40;99.90;;;;;;5004578;28;20493;-79
2023/08/01 04:38:12;;;;;;;3.40;2.28;;;14.40;99.90;;;;;;4985824;28;20053;-79
2023/08/01 04:40:38;;;;;;;3.45;2.00;;;14.30;99.90;;;;;;5010098;28;20045;-79
2023/08/01 04:43:04;;;;;;;5.15;1.70;;;14.30;99.90;;;;;;5009641;28;20050;-79
2023/08/01 04:45:29;;;;;;;2.38;1.90;;;14.20;99.90;;;;;;4992915;28;20054;-78
2023/08/01 04:47:55;;;;;;;4.97;1.90;;;14.20;99.90;;;;;;5007769;28;20065;-78
2023/08/01 04:50:21;;;;;;;4.30;1.90;;;14.20;99.90;;;;;;4992177;28;20065;-78
2023/08/01 04:52:46;;;;;;;8.13;1.95;;;14.20;99.90;;;;;;5026016;28;20065;-79
2023/08/01 04:55:12;;;;;;;6.15;2.00;;;14.10;99.90;;;;;;4993138;28;20069;-76
2023/08/01 04:57:38;;;;;;;2.90;1.88;;;14.10;99.90;;;;;;5009187;28;20350;-79
2023/08/01 05:00:04;;;;;;;3.03;1.50;;;14.00;99.90;;;;;;5005084;28;20034;-78
2023/08/01 05:02:30;;;;;;;4.72;2.42;;;14.00;99.90;;;;;;4993188;28;20030;-78
2023/08/01 05:04:56;;;;;;;4.10;1.95;;;14.00;99.90;;;;;;5007482;28;20041;-78
2023/08/01 05:07:22;;;;;;;4.43;2.17;;;14.00;99.90;;;;;;4993116;28;20077;-78
2023/08/01 05:09:47;;;;;;;4.78;2.13;;;14.10;99.90;;;;;;5008105;28;20132;-78
2023/08/01 05:12:13;;;;;;;6.38;2.35;;;14.10;99.90;;;;;;5006700;28;20093;-78
2023/08/01 05:14:39;;;;;;;6.50;1.88;;;14.10;99.90;;;;;;4993303;28;20049;-78
2023/08/01 05:17:04;;;;;;;4.25;2.10;;;14.10;99.90;;;;;;5010492;28;20038;-78
2023/08/01 05:19:30;;;;;;;5.25;2.80;;;14.10;99.90;;;;;;5008542;28;20048;-78
2023/08/01 05:21:56;;;;;;;8.90;2.33;;;14.20;99.90;;;;;;5009163;28;20042;-78
2023/08/01 05:24:22;;;;;;;4.07;2.30;;;14.20;99.90;;;;;;5009606;28;20046;-78
2023/08/01 05:26:48;;;;;;;7.32;2.28;;;14.20;99.90;;;;;;5009625;28;20049;-78
2023/08/01 05:29:13;;;;;;;6.80;2.47;;;14.20;99.90;;;;;;4975077;28;20129;-78
2023/08/01 05:31:39;;;;;;;7.55;2.33;;;14.30;99.90;;;;;;4992792;28;20042;-78
2023/08/01 05:34:04;;;;;;;5.32;2.40;;;14.30;99.90;;;;;;5010708;28;20033;-78
2023/08/01 05:36:30;;;;;;;4.80;2.53;;;14.40;99.90;;;;;;5007011;28;20539;-78
2023/08/01 05:38:56;;;;;;;5.57;2.40;;;14.40;99.90;;;;;;4985645;28;20038;-78
2023/08/01 05:41:22;;;;;;;4.13;2.30;;;14.40;99.90;;;;;;5008523;28;20033;-78
2023/08/01 05:43:49;;;;;;;4.40;2.90;;;14.40;99.90;;;;;;4991466;28;20062;-78
2023/08/01 05:46:15;;;;;;;6.93;2.67;;;14.40;99.90;;;;;;4992636;28;20479;-78
2023/08/01 05:48:41;;;;;;;4.05;2.80;;;14.50;99.90;;;;;;4992639;28;20458;-78
2023/08/01 05:51:07;;;;;;;8.07;3.00;;;14.50;99.90;;;;;;5007150;28;20049;-78
2023/08/01 05:53:33;;;;;;;11.63;4.15;;;14.60;99.90;;;;;;4993302;28;20034;-78
2023/08/01 05:55:58;;;;;;;5.63;3.10;;;14.70;99.90;;;;;;4992453;28;20038;-78
2023/08/01 05:58:24;;;;;;;3.95;2.60;;;14.70;99.90;;;;;;5005250;28;20547;-78
2023/08/01 06:00:50;;;;;;;5.43;3.05;;;14.70;99.90;;;;;;4992269;28;20041;-78
2023/08/01 06:03:16;;;;;;;7.95;3.05;;;14.70;99.90;;;;;;5009598;28;20247;-78
2023/08/01 06:05:42;;;;;;;5.53;3.20;;;14.70;99.90;;;;;;4976435;28;20077;-78
2023/08/01 06:08:08;;;;;;;5.25;2.50;;;14.80;99.90;;;;;;4992127;28;20394;-78
2023/08/01 06:10:35;;;;;;;4.85;3.25;;;14.80;99.90;;;;;;5005781;28;20129;-78
2023/08/01 06:13:00;;;;;;;6.13;2.97;;;14.80;99.90;;;;;;4990660;28;20048;-78
2023/08/01 06:15:26;;;;;;;6.78;2.80;;;14.70;99.90;;;;;;4992279;28;20046;-78
2023/08/01 06:17:52;;;;;;;7.50;2.92;;;14.80;99.90;;;;;;5008792;28;20049;-78
2023/08/01 06:20:18;;;;;;;6.43;2.88;;;14.80;99.90;;;;;;5008440;28;20042;-78
2023/08/01 06:22:44;;;;;;;5.03;2.83;;;14.80;99.90;;;;;;5005014;28;20125;-78
2023/08/01 06:25:10;;;;;;;8.40;3.10;;;14.80;99.90;;;;;;4996817;28;20352;-78
2023/08/01 06:27:36;;;;;;;8.20;2.60;;;14.80;99.90;;;;;;5009640;28;20046;-78
2023/08/01 06:30:02;;;;;;;6.97;2.85;;;14.80;99.90;;;;;;4992194;28;20478;-78
2023/08/01 06:32:27;;;;;;;5.10;2.42;;;14.90;99.90;;;;;;4981117;28;20164;-78
2023/08/01 06:34:53;;;;;;;6.20;2.75;;;14.80;99.90;;;;;;4967414;28;20038;-78
2023/08/01 06:37:19;;;;;;;4.53;2.20;;;14.80;99.90;;;;;;4970846;28;20046;-77
2023/08/01 06:39:45;;;;;;;2.53;2.03;;;14.80;99.90;;;;;;4927869;28;20042;-80
2023/08/01 06:42:10;;;;;;;4.03;1.90;;;14.80;99.90;;;;;;4994286;28;20457;-78
2023/08/01 06:44:36;;;;;;;4.75;1.60;;;14.80;99.90;;;;;;4978803;28;21332;-79
2023/08/01 06:47:02;;;;;;;3.33;1.95;;;14.80;99.90;;;;;;4980160;28;20133;-78
2023/08/01 06:49:28;;;;;;;3.83;2.15;;;14.80;99.90;;;;;;4991582;28;20482;-78
2023/08/01 06:51:53;;;;;;;7.38;2.40;;;14.80;99.90;;;;;;4969931;28;20560;-79
2023/08/01 06:54:19;;;;;;;4.55;2.90;;;14.90;99.90;;;;;;4977554;28;20693;-80
2023/08/01 06:56:47;;;;;;;6.18;3.17;;;14.90;99.90;;;;;;4980788;28;20456;-80
2023/08/01 06:59:16;;;;;;;4.93;3.13;;;15.00;99.90;;;;;;4979733;28;20108;-80
2023/08/01 07:01:43;;;;;;;7.88;3.47;;;15.00;99.90;;;;;;4996101;28;20038;-79
2023/08/01 07:04:13;;;;;;;8.50;3.22;;;15.10;99.90;;;;;;4976576;28;20507;-79
2023/08/01 07:06:39;;;;;;;6.05;3.63;;;15.10;99.90;;;;;;4980665;28;20053;-80
2023/08/01 07:09:06;;;;;;;7.45;3.25;;;15.20;99.90;;;;;;4980996;28;20029;-79
2023/08/01 07:11:32;;;;;;;7.82;2.90;;;15.20;99.90;;;;;;4989858;28;20041;-80
2023/08/01 07:13:58;;;;;;;9.55;3.42;;;15.20;99.90;;;;;;4998187;28;20038;-80
2023/08/01 07:16:24;;;;;;;5.22;3.20;;;15.40;99.90;;;;;;4996596;28;20165;-79
2023/08/01 07:18:50;;;;;;;6.03;3.15;;;15.50;99.90;;;;;;5013618;28;20037;-80
2023/08/01 07:21:17;;;;;;;7.97;2.90;;;15.60;99.90;;;;;;4964181;28;20104;-80
2023/08/01 07:23:43;;;;;;;7.57;3.70;;;15.80;99.90;;;;;;4979712;28;20045;-80
2023/08/01 07:26:09;;;;;;;6.25;3.40;;;15.60;99.90;;;;;;4971099;28;20050;-79
2023/08/01 07:28:35;;;;;;;4.55;2.83;;;15.60;99.90;;;;;;4986590;28;20046;-80
2023/08/01 07:31:06;;;;;;;5.57;2.30;;;15.70;99.90;;;;;;4974052;28;20457;-79
2023/08/01 07:33:33;;;;;;;5.63;2.47;;;15.90;99.90;;;;;;4981866;28;20037;-80
2023/08/01 07:35:59;;;;;;;4.50;2.67;;;16.10;99.90;;;;;;4998857;28;20069;-79
2023/08/01 07:38:26;;;;;;;5.90;2.38;;;16.10;99.90;;;;;;4965927;28;20050;-79
2023/08/01 07:40:53;;;;;;;5.13;2.47;;;16.10;99.90;;;;;;4988379;28;20473;-79
2023/08/01 07:43:19;;;;;;;5.03;2.28;;;16.10;99.90;;;;;;4998978;28;20049;-78
2023/08/01 07:45:45;;;;;;;8.57;2.25;;;16.20;99.90;;;;;;4997427;28;20541;-79
2023/08/01 07:48:11;;;;;;;5.85;2.15;;;16.20;99.90;;;;;;4982920;28;20033;-79
2023/08/01 07:50:37;;;;;;;6.63;2.65;;;16.30;99.90;;;;;;4971221;28;20735;-79
2023/08/01 07:53:03;;;;;;;6.15;2.50;;;16.30;99.90;;;;;;4979066;28;20431;-79
2023/08/01 07:55:28;;;;;;;8.57;2.65;;;16.30;99.90;;;;;;4988429;28;20057;-79
2023/08/01 07:57:54;;;;;;;5.28;2.60;;;16.20;99.90;;;;;;4994170;28;20048;-79
2023/08/01 08:00:20;;;;;;;8.65;3.10;;;16.20;99.90;;;;;;4974180;28;20127;-79
2023/08/01 08:02:46;;;;;;;4.47;2.58;;;16.10;99.90;;;;;;5010337;28;20133;-79
2023/08/01 08:05:12;;;;;;;4.40;2.45;;;16.00;99.90;;;;;;4994210;28;20042;-79
2023/08/01 08:07:38;;;;;;;7.70;2.72;;;15.90;99.90;;;;;;5000442;28;20044;-79
2023/08/01 08:10:05;;;;;;;5.78;2.60;;;15.80;99.90;;;;;;4990588;28;20388;-79
2023/08/01 08:12:32;;;;;;;7.68;2.80;;;15.80;99.90;;;;;;4963077;28;20092;-78
2023/08/01 08:14:57;;;;;;;5.65;2.45;;;15.80;99.90;;;;;;4969369;28;20043;-79
2023/08/01 08:17:23;;;;;;;4.72;2.65;;;15.80;99.90;;;;;;4995708;28;20068;-78
2023/08/01 08:19:49;;;;;;;5.47;2.80;;;15.70;99.90;;;;;;4972424;28;20069;-77
2023/08/01 08:22:14;;;;;;;5.97;3.05;;;15.70;99.90;;;;;;4985179;28;20041;-77
2023/08/01 08:24:40;;;;;;;4.38;2.55;;;15.80;99.90;;;;;;4978224;28;20070;-80
2023/08/01 08:27:06;;;;;;;5.05;3.05;;;15.70;99.90;;;;;;4982293;28;20084;-80
2023/08/01 08:29:32;;;;;;;4.57;2.50;;;15.70;99.90;;;;;;4981656;28;20045;-80
2023/08/01 08:31:59;;;;;;;5.68;2.58;;;15.70;99.90;;;;;;4978691;28;20041;-80
2023/08/01 08:34:24;;;;;;;4.68;2.78;;;15.70;99.90;;;;;;4997402;28;20838;-80
2023/08/01 08:36:50;;;;;;;6.72;2.60;;;15.80;99.90;;;;;;4997975;28;20442;-80
2023/08/01 08:39:17;;;;;;;8.55;2.50;;;15.80;99.90;;;;;;4969084;28;20049;-79
2023/08/01 08:41:47;;;;;;;8.95;3.20;;;15.70;99.90;;;;;;4992789;28;20038;-80
2023/08/01 08:44:16;;;;;;;5.50;2.47;;;15.70;99.90;;;;;;4987302;28;20462;-80
2023/08/01 08:46:43;;;;;;;4.93;2.30;;;15.70;99.90;;;;;;4976143;28;20451;-80
2023/08/01 08:49:10;;;;;;;4.78;2.35;;;15.60;99.90;;;;;;4981686;28;21148;-81
2023/08/01 08:51:37;;;;;;;5.60;2.53;;;15.50;99.90;;;;;;4964272;28;20491;-81
2023/08/01 08:54:04;;;;;;;5.80;2.95;;;15.40;99.90;;;;;;4948248;28;21229;-81
2023/08/01 08:56:30;;;;;;;8.55;2.95;;;15.40;99.90;;;;;;4979396;28;20442;-81
2023/08/01 08:58:57;;;;;;;8.10;3.28;;;15.40;99.90;;;;;;4968459;28;20034;-81
2023/08/01 09:01:23;;;;;;;6.72;3.38;;;15.40;99.90;;;;;;4985133;28;20220;-81
2023/08/01 09:03:48;;;;;;;5.15;3.20;;;15.40;99.90;;;;;;4979137;28;20046;-81
2023/08/01 09:06:15;;;;;;;11.48;3.22;;;15.40;99.90;;;;;;4969758;28;20388;-81
2023/08/01 09:08:47;;;;;;;10.05;3.53;;;15.50;99.90;;;;;;4982461;28;20050;-80
2023/08/01 09:11:13;;;;;;;8.57;2.70;;;15.50;99.90;;;;;;4991203;28;20331;-81
2023/08/01 09:13:39;;;;;;;6.20;3.20;;;15.50;99.90;;;;;;4994567;28;20056;-80
2023/08/01 09:16:06;;;;;;;11.48;3.30;;;15.50;99.90;;;;;;4946270;28;20042;-81
2023/08/01 09:18:32;;;;;;;8.70;3.72;;;15.50;99.90;;;;;;4971089;28;20099;-81
2023/08/01 09:21:02;;;;;;;8.43;2.90;;;15.50;99.90;;;;;;4986792;28;20044;-81
2023/08/01 09:23:28;;;;;;;7.95;3.78;;;15.50;99.90;;;;;;4987404;28;20503;-82
2023/08/01 09:25:53;;;;;;;10.07;3.70;;;15.50;99.90;;;;;;4989237;28;20038;-81
2023/08/01 09:28:21;;;;;;;14.77;3.45;;;15.50;99.90;;;;;;4984860;28;20042;-81
2023/08/01 09:30:48;;;;;;;9.35;3.38;;;15.50;99.90;;;;;;4962222;28;20442;-81
2023/08/01 09:33:14;;;;;;;10.82;3.60;;;15.50;99.90;;;;;;4967412;28;20039;-81
2023/08/01 09:35:40;;;;;;;9.40;4.07;;;15.60;99.90;;;;;;4981822;28;20884;-80
2023/08/01 09:38:05;;;;;;;7.55;3.80;;;15.60;99.90;;;;;;4958555;28;20541;-80
2023/08/01 09:40:38;;;;;;;10.73;3.85;;;15.70;99.90;;;;;;4992413;28;20487;-81
2023/08/01 09:43:04;;;;;;;9.43;3.70;;;15.70;99.90;;;;;;4984138;28;20057;-81
2023/08/01 09:45:29;;;;;;;7.95;3.85;;;15.80;99.90;;;;;;4980557;28;20057;-80
2023/08/01 09:47:55;;;;;;;9.60;3.83;;;15.80;99.90;;;;;;4966630;28;20042;-80
2023/08/01 09:50:24;;;;;;;9.93;3.92;;;15.80;99.90;;;;;;4991831;28;20050;-79
2023/08/01 09:52:53;;;;;;;7.70;3.45;;;15.80;99.90;;;;;;4966863;28;20044;-80
2023/08/01 09:55:34;;;;;;;11.00;3.08;;;15.70;99.90;;;;;;4975226;28;20442;-79
2023/08/01 09:58:00;;;;;;;5.13;2.88;;;15.70;99.90;;;;;;5006897;28;20045;-80
2023/08/01 10:00:30;;;;;;;3.45;2.40;;;15.60;99.90;;;;;;5005159;28;20061;-79
2023/08/01 10:03:00;;;;;;;8.50;2.58;;;15.50;99.90;;;;;;4972672;28;20066;-79
2023/08/01 10:05:34;;;;;;;6.38;2.70;;;15.50;99.90;;;;;;4982932;28;20503;-79
2023/08/01 10:08:02;;;;;;;7.07;3.03;;;15.50;99.90;;;;;;4981905;28;20077;-79
2023/08/01 10:10:28;;;;;;;5.55;2.72;;;15.60;99.90;;;;;;4986717;28;20095;-77
2023/08/01 10:12:57;;;;;;;6.53;3.45;;;15.80;99.90;;;;;;4981592;28;20365;-77
2023/08/01 10:15:25;;;;;;;6.15;3.40;;;16.00;99.90;;;;;;4973156;28;20390;-76
2023/08/01 10:17:51;;;;;;;5.60;3.42;;;16.20;99.90;;;;;;4975968;28;20643;-77
2023/08/01 10:20:20;;;;;;;5.93;3.65;;;16.60;99.90;;;;;;4978575;28;20566;-80
2023/08/01 10:22:47;;;;;;;4.68;2.67;;;16.90;99.90;;;;;;5024723;28;20074;-79
2023/08/01 10:25:13;;;;;;;7.20;2.97;;;17.10;99.90;;;;;;4997074;28;20405;-76
2023/08/01 10:27:40;;;;;;;5.45;2.55;;;17.40;99.90;;;;;;4946240;28;20033;-81
2023/08/01 10:30:07;;;;;;;7.88;3.00;;;17.30;99.90;;;;;;4966941;28;20428;-81
2023/08/01 10:32:35;;;;;;;5.05;2.90;;;17.40;99.90;;;;;;4988886;28;20042;-81
2023/08/01 10:35:02;;;;;;;6.30;2.58;;;17.50;99.90;;;;;;4984202;28;20046;-82
2023/08/01 10:37:43;;;;;;;4.00;2.50;;;17.50;99.90;;;;;;4970594;28;20034;-82
2023/08/01 10:40:09;;;;;;;3.53;2.38;;;17.50;99.90;;;;;;4967718;28;20069;-81
2023/08/01 10:42:45;;;;;;;7.00;2.63;;;17.50;99.90;;;;;;4977928;28;20049;-82
2023/08/01 10:45:24;;;;;;;3.67;2.25;;;17.50;99.90;;;;;;4980875;28;20045;-82
2023/08/01 10:47:50;;;;;;;5.35;2.40;;;17.60;99.90;;;;;;4948714;28;20293;-82
2023/08/01 10:50:17;;;;;;;5.97;2.40;;;17.50;99.90;;;;;;4965122;28;20444;-79
2023/08/01 10:52:43;;;;;;;6.05;2.55;;;17.30;99.90;;;;;;4952796;28;20056;-81
2023/08/01 10:55:09;;;;;;;7.57;2.55;;;17.10;99.90;;;;;;4980439;28;20038;-81
2023/08/01 10:57:38;;;;;;;5.93;2.85;;;16.90;99.90;;;;;;4962115;28;20611;-81
2023/08/01 11:00:09;;;;;;;7.28;3.03;;;16.90;99.90;;;;;;4974279;28;20063;-81
2023/08/01 11:02:35;;;;;;;4.20;2.58;;;16.80;99.90;;;;;;4960043;28;20065;-81
2023/08/01 11:05:06;;;;;;;7.65;2.80;;;16.80;99.90;;;;;;4975609;28;20158;-81
2023/08/01 11:07:33;;;;;;;6.40;3.17;;;16.70;99.90;;;;;;4992915;28;20045;-82
2023/08/01 11:10:13;;;;;;;5.85;3.40;;;16.70;99.90;;;;;;4973313;28;20046;-82
2023/08/01 11:12:41;;;;;;;5.43;3.10;;;16.60;99.90;;;;;;4991160;28;21273;-81
2023/08/01 11:15:09;;;;;;;8.25;3.20;;;16.50;99.90;;;;;;4957636;28;20077;-81
2023/08/01 11:17:39;;;;;;;7.82;2.65;;;16.50;99.90;;;;;;4974761;28;20121;-81
2023/08/01 11:20:07;;;;;;;7.65;3.15;;;16.40;99.90;;;;;;4990641;28;20049;-81
2023/08/01 11:22:33;;;;;;;8.20;3.25;;;16.40;99.90;;;;;;4969630;28;20088;-83
2023/08/01 11:24:59;;;;;;;6.07;3.28;;;16.30;99.90;;;;;;5000090;28;20069;-82
2023/08/01 11:27:26;;;;;;;9.23;3.35;;;16.30;99.90;;;;;;4959052;28;20037;-82
2023/08/01 11:29:56;;;;;;;6.78;2.92;;;16.20;99.90;;;;;;4975174;28;20424;-82
2023/08/01 11:32:32;;;;;;;8.57;3.25;;;16.20;99.90;;;;;;4972946;28;20038;-82
2023/08/01 11:34:57;;;;;;;9.07;3.80;;;16.20;99.90;;;;;;4992272;28;20049;-83
2023/08/01 11:37:26;;;;;;;13.25;3.85;;;16.10;99.90;;;;;;4996443;28;20042;-82
2023/08/01 11:39:52;;;;;;;6.13;3.03;;;16.30;99.90;;;;;;4989757;28;20112;-81
2023/08/01 11:42:18;;;;;;;8.77;3.80;;;16.60;99.90;;;;;;4976312;28;20048;-80
2023/08/01 11:44:44;;;;;;;6.43;3.38;;;16.90;99.90;;;;;;5006173;28;20495;-81
2023/08/01 11:47:13;;;;;;;4.53;2.38;;;17.20;99.90;;;;;;4975881;28;20099;-80
2023/08/01 11:49:39;;;;;;;7.00;2.22;;;17.20;99.90;;;;;;4992420;28;20042;-81
2023/08/01 11:52:05;;;;;;;8.18;2.53;;;17.00;99.90;;;;;;5027870;28;20391;-81
2023/08/01 11:54:31;;;;;;;4.65;2.30;;;16.80;99.90;;;;;;4975822;28;20129;-82
2023/08/01 11:57:02;;;;;;;11.20;3.20;;;16.60;99.90;;;;;;4988471;28;20150;-81
2023/08/01 11:59:28;;;;;;;7.18;2.83;;;16.50;99.90;;;;;;4975262;28;20042;-80
2023/08/01 12:01:54;;;;;;;4.82;2.90;;;16.50;99.90;;;;;;4991442;28;20368;-80
2023/08/01 12:04:27;;;;;;;7.47;3.03;;;16.50;99.90;;;;;;4976199;28;20045;-80
2023/08/01 12:06:53;;;;;;;5.88;2.88;;;16.50;99.90;;;;;;5004563;28;20065;-81
2023/08/01 12:09:20;;;;;;;3.70;2.45;;;16.60;99.90;;;;;;4975142;28;20081;-80
2023/08/01 12:11:46;;;;;;;6.95;2.30;;;16.60;99.90;;;;;;4992754;28;20037;-81
2023/08/01 12:14:13;;;;;;;6.57;2.28;;;16.80;99.90;;;;;;4992300;28;20430;-80
2023/08/01 12:16:45;;;;;;;5.80;2.00;;;17.10;99.90;;;;;;4991293;28;20048;-81
2023/08/01 12:19:16;;;;;;;3.90;1.98;;;17.30;99.90;;;;;;4976136;28;20058;-80
2023/08/01 12:21:42;;;;;;;4.78;1.92;;;17.30;99.90;;;;;;5021500;28;20046;-81
2023/08/01 12:24:07;;;;;;;5.32;2.22;;;17.30;99.90;;;;;;5007568;28;20447;-81
2023/08/01 12:26:33;;;;;;;5.43;1.73;;;17.20;99.90;;;;;;4974525;28;20046;-81
2023/08/01 12:28:59;;;;;;;8.65;2.17;;;17.10;99.90;;;;;;4989556;28;20091;-81
2023/08/01 12:31:24;;;;;;;3.03;2.20;;;17.10;99.90;;;;;;4992288;28;20491;-79
2023/08/01 12:33:52;;;;;;;4.47;2.33;;;17.40;99.90;;;;;;4996208;28;20403;-80
2023/08/01 12:36:17;;;;;;;4.57;1.65;;;17.70;99.90;;;;;;5007639;28;20164;-79
2023/08/01 12:38:43;;;;;;;7.90;2.30;;;18.00;99.90;;;;;;4958082;28;20646;-79